sensor_id;sensor_type;location;lat;lon;timestamp;pressure;altitude;pressure_sealevel;temperature;humidity
39487;BME280;25173;50.430;18.926;2023-02-11T00:00:46;99833.28;;;2.58;53.09
39487;BME280;25173;50.430;18.926;2023-02-11T00:03:47;99831.13;;;2.54;53.04
39487;BME280;25173;50.430;18.926;2023-02-11T00:06:47;99837.00;;;2.57;53.02
39487;BME280;25173;50.430;18.926;2023-02-11T00:09:48;99827.91;;;2.58;53.06
39487;BME280;25173;50.430;18.926;2023-02-11T00:12:49;99827.91;;;2.58;53.08
39487;BME280;25173;50.430;18.926;2023-02-11T00:15:50;99824.38;;;2.58;53.16
39487;BME280;25173;50.430;18.926;2023-02-11T00:18:50;99821.22;;;2.54;53.29
39487;BME280;25173;50.430;18.926;2023-02-11T00:21:53;99821.38;;;2.53;53.35
39487;BME280;25173;50.430;18.926;2023-02-11T00:24:53;99825.28;;;2.50;53.37
39487;BME280;25173;50.430;18.926;2023-02-11T00:27:56;99820.53;;;2.52;53.35
39487;BME280;25173;50.430;18.926;2023-02-11T00:30:57;99817.84;;;2.52;53.38
39487;BME280;25173;50.430;18.926;2023-02-11T00:33:57;99814.16;;;2.53;53.38
39487;BME280;25173;50.430;18.926;2023-02-11T00:36:58;99792.53;;;2.47;53.57
39487;BME280;25173;50.430;18.926;2023-02-11T00:39:59;99795.41;;;2.45;53.66
39487;BME280;25173;50.430;18.926;2023-02-11T00:42:59;99779.25;;;2.45;53.96
39487;BME280;25173;50.430;18.926;2023-02-11T00:46:00;99771.41;;;2.44;53.82
39487;BME280;25173;50.430;18.926;2023-02-11T00:49:00;99760.16;;;2.40;53.99
39487;BME280;25173;50.430;18.926;2023-02-11T00:52:01;99764.34;;;2.43;54.22
39487;BME280;25173;50.430;18.926;2023-02-11T00:55:02;99761.00;;;2.41;54.28
39487;BME280;25173;50.430;18.926;2023-02-11T00:58:02;99749.06;;;2.43;54.44
39487;BME280;25173;50.430;18.926;2023-02-11T01:01:03;99736.34;;;2.37;54.48
39487;BME280;25173;50.430;18.926;2023-02-11T01:04:04;99719.75;;;2.33;54.51
39487;BME280;25173;50.430;18.926;2023-02-11T01:07:04;99717.06;;;2.33;54.71
39487;BME280;25173;50.430;18.926;2023-02-11T01:10:05;99713.16;;;2.36;54.68
39487;BME280;25173;50.430;18.926;2023-02-11T01:13:06;99721.88;;;2.38;54.66
39487;BME280;25173;50.430;18.926;2023-02-11T01:16:08;99731.59;;;2.39;55.02
39487;BME280;25173;50.430;18.926;2023-02-11T01:19:09;99724.03;;;2.43;54.75
39487;BME280;25173;50.430;18.926;2023-02-11T01:22:10;99710.69;;;2.49;54.89
39487;BME280;25173;50.430;18.926;2023-02-11T01:25:10;99715.50;;;2.54;54.83
39487;BME280;25173;50.430;18.926;2023-02-11T01:28:16;99702.13;;;2.60;54.82
39487;BME280;25173;50.430;18.926;2023-02-11T01:31:17;99700.38;;;2.67;54.71
39487;BME280;25173;50.430;18.926;2023-02-11T01:34:17;99713.47;;;2.70;54.70
39487;BME280;25173;50.430;18.926;2023-02-11T01:37:18;99703.19;;;2.74;54.75
39487;BME280;25173;50.430;18.926;2023-02-11T01:40:18;99696.22;;;2.80;54.88
39487;BME280;25173;50.430;18.926;2023-02-11T01:43:19;99695.47;;;2.86;54.66
39487;BME280;25173;50.430;18.926;2023-02-11T01:46:36;99697.41;;;2.92;55.07
39487;BME280;25173;50.430;18.926;2023-02-11T01:49:39;99706.78;;;2.96;54.65
39487;BME280;25173;50.430;18.926;2023-02-11T01:52:42;99693.13;;;2.97;54.75
39487;BME280;25173;50.430;18.926;2023-02-11T01:55:45;99679.31;;;3.00;54.68
39487;BME280;25173;50.430;18.926;2023-02-11T01:59:17;99668.16;;;3.03;54.78
39487;BME280;25173;50.430;18.926;2023-02-11T02:02:24;99654.91;;;3.02;54.80
39487;BME280;25173;50.430;18.926;2023-02-11T02:09:04;99638.75;;;3.02;54.95
39487;BME280;25173;50.430;18.926;2023-02-11T02:12:06;99644.75;;;3.04;54.83
39487;BME280;25173;50.430;18.926;2023-02-11T02:15:22;99643.38;;;3.08;54.98
39487;BME280;25173;50.430;18.926;2023-02-11T02:31:53;99612.75;;;3.30;54.93
39487;BME280;25173;50.430;18.926;2023-02-11T02:35:28;99602.34;;;3.27;55.07
39487;BME280;25173;50.430;18.926;2023-02-11T02:41:45;99586.00;;;3.29;55.05
39487;BME280;25173;50.430;18.926;2023-02-11T02:44:49;99584.63;;;3.33;54.96
39487;BME280;25173;50.430;18.926;2023-02-11T02:47:51;99584.63;;;3.33;54.95
39487;BME280;25173;50.430;18.926;2023-02-11T02:51:09;99581.72;;;3.34;54.87
39487;BME280;25173;50.430;18.926;2023-02-11T02:54:41;99560.16;;;3.34;55.09
39487;BME280;25173;50.430;18.926;2023-02-11T02:58:09;99560.16;;;3.34;55.16
39487;BME280;25173;50.430;18.926;2023-02-11T03:01:39;99561.84;;;3.35;55.18
39487;BME280;25173;50.430;18.926;2023-02-11T03:05:22;99569.72;;;3.37;55.02
39487;BME280;25173;50.430;18.926;2023-02-11T03:08:31;99577.22;;;3.41;54.97
39487;BME280;25173;50.430;18.926;2023-02-11T03:11:36;99577.03;;;3.43;54.70
39487;BME280;25173;50.430;18.926;2023-02-11T03:14:37;99575.19;;;3.43;54.73
39487;BME280;25173;50.430;18.926;2023-02-11T03:17:45;99564.59;;;3.42;54.85
39487;BME280;25173;50.430;18.926;2023-02-11T03:20:49;99559.66;;;3.45;54.96
39487;BME280;25173;50.430;18.926;2023-02-11T03:23:56;99545.78;;;3.48;54.68
39487;BME280;25173;50.430;18.926;2023-02-11T03:27:36;99538.13;;;3.45;54.77
39487;BME280;25173;50.430;18.926;2023-02-11T03:30:33;99543.09;;;3.48;55.06
39487;BME280;25173;50.430;18.926;2023-02-11T03:33:57;99531.75;;;3.53;55.00
39487;BME280;25173;50.430;18.926;2023-02-11T03:37:37;99520.81;;;3.55;54.96
39487;BME280;25173;50.430;18.926;2023-02-11T03:40:41;99514.56;;;3.54;54.66
39487;BME280;25173;50.430;18.926;2023-02-11T03:43:55;99506.69;;;3.53;54.65
39487;BME280;25173;50.430;18.926;2023-02-11T03:46:56;99499.22;;;3.48;54.66
39487;BME280;25173;50.430;18.926;2023-02-11T03:49:58;99489.22;;;3.48;54.58
39487;BME280;25173;50.430;18.926;2023-02-11T03:53:01;99484.94;;;3.54;54.75
39487;BME280;25173;50.430;18.926;2023-02-11T03:56:07;99485.78;;;3.55;54.74
39487;BME280;25173;50.430;18.926;2023-02-11T03:59:08;99478.09;;;3.51;54.49
39487;BME280;25173;50.430;18.926;2023-02-11T04:02:09;99461.50;;;3.48;54.81
39487;BME280;25173;50.430;18.926;2023-02-11T04:05:12;99459.41;;;3.50;54.63
39487;BME280;25173;50.430;18.926;2023-02-11T04:08:14;99452.97;;;3.44;54.71
39487;BME280;25173;50.430;18.926;2023-02-11T04:11:14;99441.75;;;3.41;54.57
39487;BME280;25173;50.430;18.926;2023-02-11T04:14:15;99441.50;;;3.36;54.47
39487;BME280;25173;50.430;18.926;2023-02-11T04:17:16;99441.69;;;3.34;54.66
39487;BME280;25173;50.430;18.926;2023-02-11T04:20:17;99440.44;;;3.30;54.61
39487;BME280;25173;50.430;18.926;2023-02-11T04:23:17;99438.78;;;3.29;54.60
39487;BME280;25173;50.430;18.926;2023-02-11T04:26:18;99438.97;;;3.28;54.76
39487;BME280;25173;50.430;18.926;2023-02-11T04:29:18;99435.66;;;3.26;54.58
39487;BME280;25173;50.430;18.926;2023-02-11T04:32:19;99443.13;;;3.30;54.71
39487;BME280;25173;50.430;18.926;2023-02-11T04:35:20;99444.63;;;3.33;54.63
39487;BME280;25173;50.430;18.926;2023-02-11T04:38:20;99444.16;;;3.29;54.54
39487;BME280;25173;50.430;18.926;2023-02-11T04:41:23;99433.00;;;3.32;54.60
39487;BME280;25173;50.430;18.926;2023-02-11T04:44:23;99442.13;;;3.31;54.81
39487;BME280;25173;50.430;18.926;2023-02-11T04:47:24;99441.91;;;3.33;54.50
39487;BME280;25173;50.430;18.926;2023-02-11T04:50:25;99444.00;;;3.37;54.52
39487;BME280;25173;50.430;18.926;2023-02-11T04:53:25;99455.00;;;3.42;54.64
39487;BME280;25173;50.430;18.926;2023-02-11T04:56:26;99443.00;;;3.38;54.59
39487;BME280;25173;50.430;18.926;2023-02-11T04:59:26;99436.16;;;3.42;54.52
39487;BME280;25173;50.430;18.926;2023-02-11T05:02:27;99435.16;;;3.43;54.36
39487;BME280;25173;50.430;18.926;2023-02-11T05:05:27;99438.03;;;3.42;54.34
39487;BME280;25173;50.430;18.926;2023-02-11T05:08:28;99440.53;;;3.43;54.49
39487;BME280;25173;50.430;18.926;2023-02-11T05:11:28;99442.19;;;3.44;54.46
39487;BME280;25173;50.430;18.926;2023-02-11T05:14:29;99450.50;;;3.49;54.36
39487;BME280;25173;50.430;18.926;2023-02-11T05:17:30;99456.91;;;3.48;54.31
39487;BME280;25173;50.430;18.926;2023-02-11T05:20:30;99445.91;;;3.43;54.38
39487;BME280;25173;50.430;18.926;2023-02-11T05:23:31;99451.16;;;3.51;54.69
39487;BME280;25173;50.430;18.926;2023-02-11T05:26:34;99440.03;;;3.61;54.38
39487;BME280;25173;50.430;18.926;2023-02-11T05:29:35;99443.97;;;3.65;54.26
39487;BME280;25173;50.430;18.926;2023-02-11T05:32:36;99443.78;;;3.67;54.52
39487;BME280;25173;50.430;18.926;2023-02-11T05:35:36;99451.50;;;3.70;54.38
39487;BME280;25173;50.430;18.926;2023-02-11T05:38:38;99428.28;;;3.69;54.50
39487;BME280;25173;50.430;18.926;2023-02-11T05:41:42;99427.47;;;3.75;54.41
39487;BME280;25173;50.430;18.926;2023-02-11T05:44:45;99420.03;;;3.77;54.22
39487;BME280;25173;50.430;18.926;2023-02-11T05:47:46;99415.47;;;3.77;54.11
39487;BME280;25173;50.430;18.926;2023-02-11T05:50:46;99407.97;;;3.73;54.34
39487;BME280;25173;50.430;18.926;2023-02-11T05:53:47;99408.38;;;3.70;54.32
39487;BME280;25173;50.430;18.926;2023-02-11T05:56:48;99395.47;;;3.59;54.54
39487;BME280;25173;50.430;18.926;2023-02-11T05:59:48;99389.66;;;3.55;54.62
39487;BME280;25173;50.430;18.926;2023-02-11T06:02:49;99380.28;;;3.51;54.52
39487;BME280;25173;50.430;18.926;2023-02-11T06:05:49;99383.41;;;3.48;54.77
39487;BME280;25173;50.430;18.926;2023-02-11T06:08:50;99374.69;;;3.46;54.67
39487;BME280;25173;50.430;18.926;2023-02-11T06:11:50;99374.66;;;3.39;54.82
39487;BME280;25173;50.430;18.926;2023-02-11T06:14:52;99373.97;;;3.31;54.95
39487;BME280;25173;50.430;18.926;2023-02-11T06:17:52;99371.84;;;3.26;55.19
39487;BME280;25173;50.430;18.926;2023-02-11T06:20:53;99356.75;;;3.25;55.01
39487;BME280;25173;50.430;18.926;2023-02-11T06:23:54;99350.91;;;3.22;55.26
39487;BME280;25173;50.430;18.926;2023-02-11T06:26:55;99355.00;;;3.11;55.31
39487;BME280;25173;50.430;18.926;2023-02-11T06:29:55;99360.13;;;3.06;55.52
39487;BME280;25173;50.430;18.926;2023-02-11T06:32:56;99359.06;;;3.00;55.58
39487;BME280;25173;50.430;18.926;2023-02-11T06:35:56;99362.13;;;2.97;55.80
39487;BME280;25173;50.430;18.926;2023-02-11T06:38:57;99364.81;;;2.97;55.99
39487;BME280;25173;50.430;18.926;2023-02-11T06:41:57;99363.75;;;2.92;56.27
39487;BME280;25173;50.430;18.926;2023-02-11T06:44:58;99373.72;;;2.98;56.31
39487;BME280;25173;50.430;18.926;2023-02-11T06:47:59;99374.00;;;3.03;56.28
39487;BME280;25173;50.430;18.926;2023-02-11T06:51:05;99388.72;;;3.07;56.35
39487;BME280;25173;50.430;18.926;2023-02-11T06:54:07;99370.69;;;3.07;56.06
39487;BME280;25173;50.430;18.926;2023-02-11T06:57:08;99365.91;;;3.03;56.14
39487;BME280;25173;50.430;18.926;2023-02-11T07:00:09;99368.63;;;3.03;56.24
39487;BME280;25173;50.430;18.926;2023-02-11T07:03:10;99362.72;;;2.93;56.19
39487;BME280;25173;50.430;18.926;2023-02-11T07:06:14;99369.19;;;2.98;56.07
39487;BME280;25173;50.430;18.926;2023-02-11T07:09:15;99369.63;;;3.02;56.34
39487;BME280;25173;50.430;18.926;2023-02-11T07:12:16;99368.63;;;3.03;56.28
39487;BME280;25173;50.430;18.926;2023-02-11T07:15:17;99367.81;;;3.09;56.15
39487;BME280;25173;50.430;18.926;2023-02-11T07:18:20;99361.03;;;3.20;56.29
39487;BME280;25173;50.430;18.926;2023-02-11T07:21:27;99361.34;;;3.31;56.05
39487;BME280;25173;50.430;18.926;2023-02-11T07:24:30;99352.47;;;3.37;55.96
39487;BME280;25173;50.430;18.926;2023-02-11T07:27:35;99353.13;;;3.46;55.97
39487;BME280;25173;50.430;18.926;2023-02-11T07:30:35;99349.84;;;3.50;55.90
39487;BME280;25173;50.430;18.926;2023-02-11T07:33:36;99343.28;;;3.66;55.78
39487;BME280;25173;50.430;18.926;2023-02-11T07:36:40;99335.69;;;3.83;55.55
39487;BME280;25173;50.430;18.926;2023-02-11T07:39:46;99322.44;;;3.95;55.40
39487;BME280;25173;50.430;18.926;2023-02-11T07:42:52;99327.88;;;4.08;55.27
39487;BME280;25173;50.430;18.926;2023-02-11T07:45:55;99329.78;;;4.20;55.16
39487;BME280;25173;50.430;18.926;2023-02-11T07:48:57;99323.38;;;4.28;54.89
39487;BME280;25173;50.430;18.926;2023-02-11T07:51:58;99317.16;;;4.41;54.86
39487;BME280;25173;50.430;18.926;2023-02-11T07:54:59;99315.72;;;4.51;55.01
39487;BME280;25173;50.430;18.926;2023-02-11T07:57:59;99319.84;;;4.67;54.91
39487;BME280;25173;50.430;18.926;2023-02-11T08:01:05;99321.94;;;4.85;54.62
39487;BME280;25173;50.430;18.926;2023-02-11T08:04:10;99311.34;;;5.03;54.39
39487;BME280;25173;50.430;18.926;2023-02-11T08:07:16;99320.63;;;5.20;54.24
39487;BME280;25173;50.430;18.926;2023-02-11T08:10:21;99315.59;;;5.37;53.95
39487;BME280;25173;50.430;18.926;2023-02-11T08:13:22;99334.69;;;5.42;53.78
39487;BME280;25173;50.430;18.926;2023-02-11T08:16:29;99328.22;;;5.50;53.63
39487;BME280;25173;50.430;18.926;2023-02-11T08:19:30;99332.38;;;5.59;53.54
39487;BME280;25173;50.430;18.926;2023-02-11T08:22:32;99345.00;;;5.71;53.39
39487;BME280;25173;50.430;18.926;2023-02-11T08:25:32;99325.84;;;5.79;53.24
39487;BME280;25173;50.430;18.926;2023-02-11T08:28:38;99325.22;;;5.84;53.21
39487;BME280;25173;50.430;18.926;2023-02-11T08:31:41;99327.28;;;5.82;52.84
39487;BME280;25173;50.430;18.926;2023-02-11T08:34:42;99324.59;;;5.82;53.27
39487;BME280;25173;50.430;18.926;2023-02-11T08:37:43;99332.88;;;5.87;52.82
39487;BME280;25173;50.430;18.926;2023-02-11T08:40:43;99337.06;;;5.90;52.93
39487;BME280;25173;50.430;18.926;2023-02-11T08:43:44;99329.06;;;6.08;53.00
39487;BME280;25173;50.430;18.926;2023-02-11T08:46:45;99325.25;;;6.22;52.87
39487;BME280;25173;50.430;18.926;2023-02-11T08:49:46;99314.16;;;6.30;52.63
39487;BME280;25173;50.430;18.926;2023-02-11T08:52:47;99312.25;;;6.37;52.63
39487;BME280;25173;50.430;18.926;2023-02-11T08:55:52;99337.41;;;6.38;52.28
39487;BME280;25173;50.430;18.926;2023-02-11T08:58:53;99333.03;;;6.43;52.44
39487;BME280;25173;50.430;18.926;2023-02-11T09:01:54;99343.59;;;6.51;52.40
39487;BME280;25173;50.430;18.926;2023-02-11T09:04:55;99351.41;;;6.59;52.18
39487;BME280;25173;50.430;18.926;2023-02-11T09:07:56;99347.22;;;6.63;52.11
39487;BME280;25173;50.430;18.926;2023-02-11T09:10:56;99358.53;;;6.54;51.88
39487;BME280;25173;50.430;18.926;2023-02-11T09:13:57;99345.66;;;6.49;51.95
39487;BME280;25173;50.430;18.926;2023-02-11T09:16:58;99344.56;;;6.57;52.09
39487;BME280;25173;50.430;18.926;2023-02-11T09:20:00;99356.66;;;6.54;51.91
39487;BME280;25173;50.430;18.926;2023-02-11T09:23:01;99358.38;;;6.49;51.99
39487;BME280;25173;50.430;18.926;2023-02-11T09:26:06;99373.25;;;6.65;52.05
39487;BME280;25173;50.430;18.926;2023-02-11T09:29:07;99360.22;;;6.80;51.34
39487;BME280;25173;50.430;18.926;2023-02-11T09:32:08;99361.00;;;6.87;51.68
39487;BME280;25173;50.430;18.926;2023-02-11T09:35:08;99354.66;;;6.99;51.94
39487;BME280;25173;50.430;18.926;2023-02-11T09:38:09;99357.00;;;7.14;51.54
39487;BME280;25173;50.430;18.926;2023-02-11T09:44:27;99358.25;;;7.18;51.16
39487;BME280;25173;50.430;18.926;2023-02-11T09:47:32;99345.69;;;7.24;51.32
39487;BME280;25173;50.430;18.926;2023-02-11T09:50:35;99327.06;;;7.27;51.12
39487;BME280;25173;50.430;18.926;2023-02-11T09:53:39;99334.69;;;7.37;51.04
39487;BME280;25173;50.430;18.926;2023-02-11T09:56:41;99325.72;;;7.36;50.88
39487;BME280;25173;50.430;18.926;2023-02-11T09:59:42;99334.75;;;7.49;50.99
39487;BME280;25173;50.430;18.926;2023-02-11T10:03:05;99328.75;;;7.65;50.26
39487;BME280;25173;50.430;18.926;2023-02-11T10:06:44;99330.53;;;7.71;49.72
39487;BME280;25173;50.430;18.926;2023-02-11T10:16:54;99297.38;;;7.87;50.06
39487;BME280;25173;50.430;18.926;2023-02-11T10:20:24;99252.28;;;7.93;49.62
39487;BME280;25173;50.430;18.926;2023-02-11T10:23:35;99250.50;;;7.98;49.83
39487;BME280;25173;50.430;18.926;2023-02-11T10:26:37;99238.31;;;7.89;49.81
39487;BME280;25173;50.430;18.926;2023-02-11T10:29:42;99231.13;;;7.83;50.00
39487;BME280;25173;50.430;18.926;2023-02-11T10:32:47;99216.94;;;7.81;50.01
39487;BME280;25173;50.430;18.926;2023-02-11T10:35:50;99195.63;;;7.85;50.05
39487;BME280;25173;50.430;18.926;2023-02-11T10:38:53;99178.19;;;7.92;50.25
39487;BME280;25173;50.430;18.926;2023-02-11T10:41:58;99169.84;;;8.05;50.14
39487;BME280;25173;50.430;18.926;2023-02-11T10:45:02;99172.22;;;8.13;49.97
39487;BME280;25173;50.430;18.926;2023-02-11T10:48:34;99176.13;;;8.17;49.93
39487;BME280;25173;50.430;18.926;2023-02-11T10:51:33;99202.09;;;8.25;49.35
39487;BME280;25173;50.430;18.926;2023-02-11T10:54:33;99207.50;;;8.13;50.08
39487;BME280;25173;50.430;18.926;2023-02-11T10:57:37;99194.88;;;8.07;49.96
39487;BME280;25173;50.430;18.926;2023-02-11T11:00:41;99195.06;;;7.94;50.08
39487;BME280;25173;50.430;18.926;2023-02-11T11:03:48;99187.72;;;7.83;50.30
39487;BME280;25173;50.430;18.926;2023-02-11T11:06:50;99197.47;;;7.72;50.66
39487;BME280;25173;50.430;18.926;2023-02-11T11:09:55;99206.28;;;7.68;50.75
39487;BME280;25173;50.430;18.926;2023-02-11T11:12:58;99195.78;;;7.60;50.77
39487;BME280;25173;50.430;18.926;2023-02-11T11:19:23;99201.28;;;7.53;51.36
39487;BME280;25173;50.430;18.926;2023-02-11T11:22:24;99200.16;;;7.43;51.59
39487;BME280;25173;50.430;18.926;2023-02-11T11:25:26;99190.38;;;7.41;51.97
39487;BME280;25173;50.430;18.926;2023-02-11T11:28:28;99186.91;;;7.34;52.24
39487;BME280;25173;50.430;18.926;2023-02-11T11:31:44;99167.38;;;7.32;52.50
39487;BME280;25173;50.430;18.926;2023-02-11T11:34:52;99167.22;;;7.27;52.54
39487;BME280;25173;50.430;18.926;2023-02-11T11:38:00;99179.41;;;7.36;52.50
39487;BME280;25173;50.430;18.926;2023-02-11T11:41:32;99179.09;;;7.45;52.84
39487;BME280;25173;50.430;18.926;2023-02-11T11:44:37;99187.59;;;7.48;52.94
39487;BME280;25173;50.430;18.926;2023-02-11T11:48:05;99181.94;;;7.50;52.66
39487;BME280;25173;50.430;18.926;2023-02-11T11:51:05;99191.88;;;7.56;52.74
39487;BME280;25173;50.430;18.926;2023-02-11T11:54:14;99177.97;;;7.64;52.96
39487;BME280;25173;50.430;18.926;2023-02-11T11:57:18;99187.00;;;7.76;52.77
39487;BME280;25173;50.430;18.926;2023-02-11T12:00:30;99180.97;;;7.74;52.96
39487;BME280;25173;50.430;18.926;2023-02-11T12:03:51;99178.97;;;7.69;53.02
39487;BME280;25173;50.430;18.926;2023-02-11T12:14:14;99195.91;;;7.65;53.99
39487;BME280;25173;50.430;18.926;2023-02-11T12:24:26;99194.91;;;7.48;55.25
39487;BME280;25173;50.430;18.926;2023-02-11T12:27:39;99170.81;;;7.39;55.64
39487;BME280;25173;50.430;18.926;2023-02-11T12:31:45;99165.94;;;7.30;56.71
39487;BME280;25173;50.430;18.926;2023-02-11T12:41:41;99093.06;;;7.10;57.48
39487;BME280;25173;50.430;18.926;2023-02-11T12:55:09;99131.38;;;6.77;57.76
39487;BME280;25173;50.430;18.926;2023-02-11T12:58:26;99132.72;;;6.68;57.68
39487;BME280;25173;50.430;18.926;2023-02-11T13:01:40;99119.66;;;6.65;57.68
39487;BME280;25173;50.430;18.926;2023-02-11T13:04:55;99121.75;;;6.63;58.01
39487;BME280;25173;50.430;18.926;2023-02-11T13:08:12;99121.66;;;6.70;58.16
39487;BME280;25173;50.430;18.926;2023-02-11T13:11:32;99120.00;;;6.69;58.74
39487;BME280;25173;50.430;18.926;2023-02-11T13:14:39;99108.91;;;6.58;58.46
39487;BME280;25173;50.430;18.926;2023-02-11T13:17:55;99113.09;;;6.54;59.22
39487;BME280;25173;50.430;18.926;2023-02-11T13:25:06;99054.16;;;6.56;59.72
39487;BME280;25173;50.430;18.926;2023-02-11T13:31:34;99020.25;;;6.54;60.38
39487;BME280;25173;50.430;18.926;2023-02-11T13:37:46;99056.66;;;6.58;60.97
39487;BME280;25173;50.430;18.926;2023-02-11T13:41:17;99044.53;;;6.60;61.67
39487;BME280;25173;50.430;18.926;2023-02-11T13:44:22;99047.69;;;6.57;60.82
39487;BME280;25173;50.430;18.926;2023-02-11T13:47:32;99063.19;;;6.50;61.33
39487;BME280;25173;50.430;18.926;2023-02-11T13:50:38;99064.84;;;6.51;61.10
39487;BME280;25173;50.430;18.926;2023-02-11T13:53:53;99072.97;;;6.51;61.27
39487;BME280;25173;50.430;18.926;2023-02-11T13:57:35;99080.47;;;6.49;61.88
39487;BME280;25173;50.430;18.926;2023-02-11T14:03:37;99083.84;;;6.45;61.81
39487;BME280;25173;50.430;18.926;2023-02-11T14:07:25;99093.38;;;6.47;62.50
39487;BME280;25173;50.430;18.926;2023-02-11T14:10:50;99111.13;;;6.43;62.05
39487;BME280;25173;50.430;18.926;2023-02-11T14:20:03;99114.38;;;6.52;61.94
39487;BME280;25173;50.430;18.926;2023-02-11T14:23:04;99114.75;;;6.55;61.91
39487;BME280;25173;50.430;18.926;2023-02-11T14:29:48;99106.31;;;6.63;62.91
39487;BME280;25173;50.430;18.926;2023-02-11T14:33:22;99113.41;;;6.65;62.19
39487;BME280;25173;50.430;18.926;2023-02-11T14:42:54;99117.81;;;6.77;61.82
39487;BME280;25173;50.430;18.926;2023-02-11T14:45:57;99117.75;;;6.84;61.81
39487;BME280;25173;50.430;18.926;2023-02-11T14:49:04;99124.38;;;6.88;61.51
39487;BME280;25173;50.430;18.926;2023-02-11T14:52:26;99116.09;;;6.83;62.23
39487;BME280;25173;50.430;18.926;2023-02-11T14:58:30;99116.84;;;6.90;61.65
39487;BME280;25173;50.430;18.926;2023-02-11T15:01:35;99121.41;;;6.89;61.85
39487;BME280;25173;50.430;18.926;2023-02-11T15:04:35;99128.06;;;6.93;61.94
39487;BME280;25173;50.430;18.926;2023-02-11T15:07:45;99132.34;;;7.01;61.98
39487;BME280;25173;50.430;18.926;2023-02-11T15:10:46;99125.41;;;7.05;61.71
39487;BME280;25173;50.430;18.926;2023-02-11T15:13:48;99138.06;;;7.11;61.52
39487;BME280;25173;50.430;18.926;2023-02-11T15:16:51;99125.78;;;7.09;61.77
39487;BME280;25173;50.430;18.926;2023-02-11T15:19:58;99139.78;;;7.06;61.96
39487;BME280;25173;50.430;18.926;2023-02-11T15:23:02;99136.53;;;6.97;62.24
39487;BME280;25173;50.430;18.926;2023-02-11T15:26:12;99143.03;;;6.96;62.65
39487;BME280;25173;50.430;18.926;2023-02-11T15:29:16;99142.28;;;6.89;62.73
39487;BME280;25173;50.430;18.926;2023-02-11T15:32:22;99159.41;;;6.83;63.19
39487;BME280;25173;50.430;18.926;2023-02-11T15:35:24;99159.41;;;6.83;63.34
39487;BME280;25173;50.430;18.926;2023-02-11T15:38:27;99160.31;;;6.77;63.55
39487;BME280;25173;50.430;18.926;2023-02-11T15:41:36;99155.38;;;6.74;63.95
39487;BME280;25173;50.430;18.926;2023-02-11T15:44:37;99156.25;;;6.68;63.94
39487;BME280;25173;50.430;18.926;2023-02-11T15:47:39;99147.97;;;6.62;64.38
39487;BME280;25173;50.430;18.926;2023-02-11T15:50:48;99151.59;;;6.56;64.86
39487;BME280;25173;50.430;18.926;2023-02-11T15:53:52;99154.78;;;6.47;65.06
39487;BME280;25173;50.430;18.926;2023-02-11T15:57:03;99163.19;;;6.39;65.58
39487;BME280;25173;50.430;18.926;2023-02-11T16:00:13;99164.56;;;6.30;65.75
39487;BME280;25173;50.430;18.926;2023-02-11T16:03:20;99178.28;;;6.28;66.06
39487;BME280;25173;50.430;18.926;2023-02-11T16:06:26;99171.84;;;6.29;66.01
39487;BME280;25173;50.430;18.926;2023-02-11T16:09:34;99178.28;;;6.28;66.04
39487;BME280;25173;50.430;18.926;2023-02-11T16:12:35;99173.25;;;6.32;66.25
39487;BME280;25173;50.430;18.926;2023-02-11T16:18:56;99170.34;;;6.33;66.53
39487;BME280;25173;50.430;18.926;2023-02-11T16:21:59;99188.91;;;6.30;66.37
39487;BME280;25173;50.430;18.926;2023-02-11T16:25:01;99176.63;;;6.27;66.69
39487;BME280;25173;50.430;18.926;2023-02-11T16:28:03;99185.72;;;6.33;66.46
39487;BME280;25173;50.430;18.926;2023-02-11T16:31:04;99194.69;;;6.33;66.69
39487;BME280;25173;50.430;18.926;2023-02-11T16:34:31;99198.06;;;6.29;67.96
39487;BME280;25173;50.430;18.926;2023-02-11T16:37:32;99192.88;;;6.27;67.04
39487;BME280;25173;50.430;18.926;2023-02-11T16:40:34;99189.13;;;6.28;67.00
39487;BME280;25173;50.430;18.926;2023-02-11T16:43:35;99189.69;;;6.30;67.11
39487;BME280;25173;50.430;18.926;2023-02-11T16:46:36;99191.16;;;6.33;67.00
39487;BME280;25173;50.430;18.926;2023-02-11T16:49:40;99193.03;;;6.32;67.11
39487;BME280;25173;50.430;18.926;2023-02-11T16:52:41;99196.28;;;6.41;66.99
39487;BME280;25173;50.430;18.926;2023-02-11T16:55:42;99196.91;;;6.43;67.19
39487;BME280;25173;50.430;18.926;2023-02-11T16:58:43;99187.34;;;6.40;67.37
39487;BME280;25173;50.430;18.926;2023-02-11T17:01:45;99201.47;;;6.42;67.42
39487;BME280;25173;50.430;18.926;2023-02-11T17:04:47;99210.25;;;6.38;67.81
39487;BME280;25173;50.430;18.926;2023-02-11T17:07:48;99201.31;;;6.37;67.81
39487;BME280;25173;50.430;18.926;2023-02-11T17:10:49;99198.97;;;6.41;68.12
39487;BME280;25173;50.430;18.926;2023-02-11T17:13:50;99198.91;;;6.47;67.95
39487;BME280;25173;50.430;18.926;2023-02-11T17:16:51;99204.94;;;6.49;68.12
39487;BME280;25173;50.430;18.926;2023-02-11T17:19:51;99190.38;;;6.50;68.26
39487;BME280;25173;50.430;18.926;2023-02-11T17:22:52;99205.56;;;6.51;68.44
39487;BME280;25173;50.430;18.926;2023-02-11T17:25:55;99213.91;;;6.50;68.66
39487;BME280;25173;50.430;18.926;2023-02-11T17:28:56;99210.22;;;6.44;68.98
39487;BME280;25173;50.430;18.926;2023-02-11T17:31:57;99214.31;;;6.47;69.48
39487;BME280;25173;50.430;18.926;2023-02-11T17:34:57;99213.72;;;6.45;69.55
39487;BME280;25173;50.430;18.926;2023-02-11T17:37:58;99199.31;;;6.51;69.65
39487;BME280;25173;50.430;18.926;2023-02-11T17:41:02;99208.84;;;6.53;69.59
39487;BME280;25173;50.430;18.926;2023-02-11T17:44:05;99208.28;;;6.51;69.97
39487;BME280;25173;50.430;18.926;2023-02-11T17:47:06;99212.16;;;6.55;70.07
39487;BME280;25173;50.430;18.926;2023-02-11T17:50:07;99204.94;;;6.49;70.37
39487;BME280;25173;50.430;18.926;2023-02-11T17:53:08;99213.72;;;6.45;70.33
39487;BME280;25173;50.430;18.926;2023-02-11T17:56:09;99215.22;;;6.41;70.83
39487;BME280;25173;50.430;18.926;2023-02-11T17:59:11;99211.91;;;6.39;70.86
39487;BME280;25173;50.430;18.926;2023-02-11T18:02:12;99210.47;;;6.36;70.83